sensor_id;sensor_type;location;lat;lon;timestamp;pressure;altitude;pressure_sealevel;temperature;humidity
30724;BME280;17473;52.286;20.930;2023-07-13T00:02:24;99847.53;;;21.25;92.25
30724;BME280;17473;52.286;20.930;2023-07-13T00:04:51;99843.31;;;21.11;93.99
30724;BME280;17473;52.286;20.930;2023-07-13T00:07:19;99832.50;;;21.16;93.28
30724;BME280;17473;52.286;20.930;2023-07-13T00:09:52;99840.63;;;21.11;94.48
30724;BME280;17473;52.286;20.930;2023-07-13T00:12:35;99842.53;;;21.06;94.43
30724;BME280;17473;52.286;20.930;2023-07-13T00:15:09;99830.84;;;21.09;93.87
30724;BME280;17473;52.286;20.930;2023-07-13T00:17:38;99820.88;;;21.16;92.90
30724;BME280;17473;52.286;20.930;2023-07-13T00:20:06;99825.34;;;21.15;91.85
30724;BME280;17473;52.286;20.930;2023-07-13T00:22:34;99827.41;;;21.01;93.45
30724;BME280;17473;52.286;20.930;2023-07-13T00:25:01;99821.09;;;21.03;93.47
30724;BME280;17473;52.286;20.930;2023-07-13T00:27:28;99823.00;;;20.97;94.12
30724;BME280;17473;52.286;20.930;2023-07-13T00:29:58;99829.44;;;20.88;95.84
30724;BME280;17473;52.286;20.930;2023-07-13T00:32:27;99831.97;;;20.95;95.46
30724;BME280;17473;52.286;20.930;2023-07-13T00:34:54;99824.91;;;20.90;95.02
30724;BME280;17473;52.286;20.930;2023-07-13T00:37:22;99831.97;;;20.95;95.01
30724;BME280;17473;52.286;20.930;2023-07-13T00:39:49;99829.19;;;21.02;93.69
30724;BME280;17473;52.286;20.930;2023-07-13T00:42:16;99835.44;;;21.02;93.95
30724;BME280;17473;52.286;20.930;2023-07-13T00:47:55;99826.53;;;21.00;93.75
30724;BME280;17473;52.286;20.930;2023-07-13T00:50:24;99822.38;;;20.82;94.61
30724;BME280;17473;52.286;20.930;2023-07-13T00:52:54;99818.81;;;20.80;95.01
30724;BME280;17473;52.286;20.930;2023-07-13T00:55:24;99821.56;;;20.77;95.74
30724;BME280;17473;52.286;20.930;2023-07-13T00:57:51;99830.50;;;20.77;95.71
30724;BME280;17473;52.286;20.930;2023-07-13T01:00:21;99826.09;;;20.73;96.12
30724;BME280;17473;52.286;20.930;2023-07-13T01:02:49;99815.25;;;20.81;95.35
30724;BME280;17473;52.286;20.930;2023-07-13T01:05:20;99817.00;;;20.82;94.51
30724;BME280;17473;52.286;20.930;2023-07-13T01:07:49;99811.56;;;20.85;93.76
30724;BME280;17473;52.286;20.930;2023-07-13T01:10:22;99832.41;;;20.69;96.18
30724;BME280;17473;52.286;20.930;2023-07-13T01:12:49;99818.88;;;20.77;94.82
30724;BME280;17473;52.286;20.930;2023-07-13T01:15:53;99812.72;;;20.69;95.10
30724;BME280;17473;52.286;20.930;2023-07-13T01:18:27;99815.56;;;20.61;96.26
30724;BME280;17473;52.286;20.930;2023-07-13T01:21:01;99819.97;;;20.63;95.83
30724;BME280;17473;52.286;20.930;2023-07-13T01:23:31;99823.47;;;20.67;96.03
30724;BME280;17473;52.286;20.930;2023-07-13T01:25:59;99822.63;;;20.65;96.14
30724;BME280;17473;52.286;20.930;2023-07-13T01:28:27;99822.72;;;20.59;95.47
30724;BME280;17473;52.286;20.930;2023-07-13T01:30:57;99823.66;;;20.56;96.40
30724;BME280;17473;52.286;20.930;2023-07-13T01:33:26;99824.63;;;20.52;97.04
30724;BME280;17473;52.286;20.930;2023-07-13T01:35:53;99833.59;;;20.49;97.29
30724;BME280;17473;52.286;20.930;2023-07-13T01:38:22;99850.63;;;20.47;96.89
30724;BME280;17473;52.286;20.930;2023-07-13T01:40:51;99853.34;;;20.44;97.47
30724;BME280;17473;52.286;20.930;2023-07-13T01:43:19;99866.72;;;20.45;97.14
30724;BME280;17473;52.286;20.930;2023-07-13T01:45:47;99856.00;;;20.45;97.85
30724;BME280;17473;52.286;20.930;2023-07-13T01:48:14;99852.41;;;20.48;96.95
30724;BME280;17473;52.286;20.930;2023-07-13T01:50:41;99853.28;;;20.48;97.36
30724;BME280;17473;52.286;20.930;2023-07-13T01:53:09;99849.81;;;20.40;97.46
30724;BME280;17473;52.286;20.930;2023-07-13T01:55:37;99847.16;;;20.40;97.80
30724;BME280;17473;52.286;20.930;2023-07-13T01:58:05;99847.28;;;20.31;99.00
30724;BME280;17473;52.286;20.930;2023-07-13T02:00:33;99850.69;;;20.41;97.66
30724;BME280;17473;52.286;20.930;2023-07-13T02:03:00;99840.09;;;20.33;98.40
30724;BME280;17473;52.286;20.930;2023-07-13T02:05:27;99840.97;;;20.33;97.83
30724;BME280;17473;52.286;20.930;2023-07-13T02:07:55;99844.44;;;20.43;97.68
30724;BME280;17473;52.286;20.930;2023-07-13T02:10:22;99859.75;;;20.33;98.20
30724;BME280;17473;52.286;20.930;2023-07-13T02:12:49;99860.66;;;20.34;98.79
30724;BME280;17473;52.286;20.930;2023-07-13T02:15:17;99850.97;;;20.24;98.39
30724;BME280;17473;52.286;20.930;2023-07-13T02:17:45;99855.44;;;20.22;98.69
30724;BME280;17473;52.286;20.930;2023-07-13T02:20:13;99860.78;;;20.25;99.02
30724;BME280;17473;52.286;20.930;2023-07-13T02:22:40;99857.16;;;20.27;98.86
30724;BME280;17473;52.286;20.930;2023-07-13T02:25:07;99852.75;;;20.23;99.35
30724;BME280;17473;52.286;20.930;2023-07-13T02:27:35;99865.31;;;20.21;99.42
30724;BME280;17473;52.286;20.930;2023-07-13T02:30:02;99866.25;;;20.17;100.00
30724;BME280;17473;52.286;20.930;2023-07-13T02:32:30;99861.78;;;20.16;100.00
30724;BME280;17473;52.286;20.930;2023-07-13T02:34:57;99872.47;;;20.19;100.00
30724;BME280;17473;52.286;20.930;2023-07-13T02:37:24;99873.09;;;20.38;98.80
30724;BME280;17473;52.286;20.930;2023-07-13T02:39:51;99872.97;;;20.46;98.16
30724;BME280;17473;52.286;20.930;2023-07-13T02:42:18;99871.94;;;20.55;96.93
30724;BME280;17473;52.286;20.930;2023-07-13T02:44:45;99869.41;;;20.47;97.91
30724;BME280;17473;52.286;20.930;2023-07-13T02:47:13;99863.19;;;20.43;98.72
30724;BME280;17473;52.286;20.930;2023-07-13T02:49:40;99859.66;;;20.40;99.75
30724;BME280;17473;52.286;20.930;2023-07-13T02:52:07;99864.28;;;20.30;99.85
30724;BME280;17473;52.286;20.930;2023-07-13T02:54:34;99857.31;;;20.15;100.00
30724;BME280;17473;52.286;20.930;2023-07-13T02:57:01;99858.13;;;20.22;100.00
30724;BME280;17473;52.286;20.930;2023-07-13T02:59:28;99862.53;;;20.27;100.00
30724;BME280;17473;52.286;20.930;2023-07-13T03:01:56;99864.25;;;20.33;99.65
30724;BME280;17473;52.286;20.930;2023-07-13T03:04:23;99860.50;;;20.42;98.75
30724;BME280;17473;52.286;20.930;2023-07-13T03:06:50;99857.06;;;20.33;99.34
30724;BME280;17473;52.286;20.930;2023-07-13T03:09:17;99860.63;;;20.36;98.44
30724;BME280;17473;52.286;20.930;2023-07-13T03:11:45;99863.97;;;20.50;97.94
30724;BME280;17473;52.286;20.930;2023-07-13T03:14:12;99855.09;;;20.46;97.76
30724;BME280;17473;52.286;20.930;2023-07-13T03:16:39;99857.84;;;20.42;97.94
30724;BME280;17473;52.286;20.930;2023-07-13T03:19:06;99846.22;;;20.43;97.16
30724;BME280;17473;52.286;20.930;2023-07-13T03:21:34;99861.59;;;20.30;99.22
30724;BME280;17473;52.286;20.930;2023-07-13T03:24:01;99854.50;;;20.27;100.00
30724;BME280;17473;52.286;20.930;2023-07-13T03:26:28;99853.50;;;20.33;100.00
30724;BME280;17473;52.286;20.930;2023-07-13T03:28:55;99853.38;;;20.41;99.80
30724;BME280;17473;52.286;20.930;2023-07-13T03:31:26;99855.16;;;20.43;99.44
30724;BME280;17473;52.286;20.930;2023-07-13T03:33:56;99848.56;;;20.63;99.54
30724;BME280;17473;52.286;20.930;2023-07-13T03:36:27;99850.06;;;20.84;97.07
30724;BME280;17473;52.286;20.930;2023-07-13T03:38:58;99837.44;;;20.89;96.10
30724;BME280;17473;52.286;20.930;2023-07-13T03:41:26;99835.44;;;21.02;96.17
30724;BME280;17473;52.286;20.930;2023-07-13T03:43:54;99836.31;;;21.51;93.36
30724;BME280;17473;52.286;20.930;2023-07-13T03:46:21;99836.56;;;22.64;85.24
30724;BME280;17473;52.286;20.930;2023-07-13T03:48:48;99843.16;;;23.88;78.67
30724;BME280;17473;52.286;20.930;2023-07-13T03:51:17;99842.97;;;24.24;76.34
30724;BME280;17473;52.286;20.930;2023-07-13T03:53:46;99846.50;;;25.35;71.48
30724;BME280;17473;52.286;20.930;2023-07-13T03:56:16;99843.81;;;26.76;65.12
30724;BME280;17473;52.286;20.930;2023-07-13T03:58:47;99858.69;;;28.12;59.08
30724;BME280;17473;52.286;20.930;2023-07-13T04:01:16;99866.69;;;28.34;56.52
30724;BME280;17473;52.286;20.930;2023-07-13T04:03:44;99861.09;;;29.63;53.65
30724;BME280;17473;52.286;20.930;2023-07-13T04:06:23;99851.44;;;30.73;49.64
30724;BME280;17473;52.286;20.930;2023-07-13T04:08:56;99856.84;;;31.35;47.51
30724;BME280;17473;52.286;20.930;2023-07-13T04:11:28;99854.22;;;31.63;46.47
30724;BME280;17473;52.286;20.930;2023-07-13T04:13:56;99858.34;;;31.70;46.07
30724;BME280;17473;52.286;20.930;2023-07-13T04:16:23;99864.31;;;31.77;46.13
30724;BME280;17473;52.286;20.930;2023-07-13T04:18:51;99868.38;;;32.84;43.83
30724;BME280;17473;52.286;20.930;2023-07-13T04:21:22;99875.75;;;34.27;41.05
30724;BME280;17473;52.286;20.930;2023-07-13T04:23:49;99879.47;;;34.52;40.05
30724;BME280;17473;52.286;20.930;2023-07-13T04:26:17;99881.59;;;35.32;38.82
30724;BME280;17473;52.286;20.930;2023-07-13T04:28:48;99889.78;;;33.45;41.85
30724;BME280;17473;52.286;20.930;2023-07-13T04:31:16;99893.94;;;31.38;47.40
30724;BME280;17473;52.286;20.930;2023-07-13T04:33:43;99898.22;;;29.47;51.12
30724;BME280;17473;52.286;20.930;2023-07-13T04:36:15;99894.34;;;27.63;57.87
30724;BME280;17473;52.286;20.930;2023-07-13T04:38:43;99890.47;;;26.84;62.02
30724;BME280;17473;52.286;20.930;2023-07-13T04:41:11;99892.19;;;26.63;63.94
30724;BME280;17473;52.286;20.930;2023-07-13T04:43:39;99899.41;;;26.40;65.29
30724;BME280;17473;52.286;20.930;2023-07-13T04:46:15;99892.00;;;25.98;66.98
30724;BME280;17473;52.286;20.930;2023-07-13T04:48:44;99900.03;;;25.76;69.09
30724;BME280;17473;52.286;20.930;2023-07-13T04:51:12;99902.63;;;25.54;70.84
30724;BME280;17473;52.286;20.930;2023-07-13T04:53:39;99901.72;;;25.53;71.06
30724;BME280;17473;52.286;20.930;2023-07-13T04:56:06;99902.19;;;25.12;72.57
30724;BME280;17473;52.286;20.930;2023-07-13T04:58:34;99890.69;;;25.07;73.03
30724;BME280;17473;52.286;20.930;2023-07-13T05:01:05;99889.38;;;24.92;73.56
30724;BME280;17473;52.286;20.930;2023-07-13T05:03:33;99895.78;;;24.90;73.66
30724;BME280;17473;52.286;20.930;2023-07-13T05:06:05;99899.84;;;24.46;76.34
30724;BME280;17473;52.286;20.930;2023-07-13T05:08:33;99909.53;;;24.52;75.74
30724;BME280;17473;52.286;20.930;2023-07-13T05:11:03;99912.16;;;24.25;77.48
30724;BME280;17473;52.286;20.930;2023-07-13T05:13:30;99918.31;;;24.30;76.98
30724;BME280;17473;52.286;20.930;2023-07-13T05:16:01;99920.91;;;24.33;76.99
30724;BME280;17473;52.286;20.930;2023-07-13T05:18:29;99931.22;;;24.19;78.23
30724;BME280;17473;52.286;20.930;2023-07-13T05:21:02;99923.03;;;24.22;77.97
30724;BME280;17473;52.286;20.930;2023-07-13T05:23:31;99920.19;;;23.97;80.12
30724;BME280;17473;52.286;20.930;2023-07-13T05:25:59;99926.16;;;24.08;80.91
30724;BME280;17473;52.286;20.930;2023-07-13T05:28:27;99932.84;;;24.25;80.32
30724;BME280;17473;52.286;20.930;2023-07-13T05:30:56;99936.69;;;24.46;78.58
30724;BME280;17473;52.286;20.930;2023-07-13T05:33:25;99938.19;;;24.56;78.07
30724;BME280;17473;52.286;20.930;2023-07-13T05:35:53;99952.78;;;24.79;76.29
30724;BME280;17473;52.286;20.930;2023-07-13T05:38:21;99962.72;;;24.78;76.73
30724;BME280;17473;52.286;20.930;2023-07-13T05:40:50;99959.72;;;24.88;77.01
30724;BME280;17473;52.286;20.930;2023-07-13T05:43:17;99961.47;;;25.17;77.26
30724;BME280;17473;52.286;20.930;2023-07-13T05:45:44;99948.41;;;25.30;75.57
30724;BME280;17473;52.286;20.930;2023-07-13T05:48:11;99953.44;;;26.90;69.89
30724;BME280;17473;52.286;20.930;2023-07-13T05:50:38;99960.03;;;27.27;66.62
30724;BME280;17473;52.286;20.930;2023-07-13T05:53:05;99958.75;;;27.13;66.61
30724;BME280;17473;52.286;20.930;2023-07-13T05:55:33;99953.63;;;26.14;70.80
30724;BME280;17473;52.286;20.930;2023-07-13T05:58:01;99942.84;;;25.63;73.21
30724;BME280;17473;52.286;20.930;2023-07-13T06:00:28;99942.75;;;25.39;74.56
30724;BME280;17473;52.286;20.930;2023-07-13T06:02:56;99936.84;;;25.53;72.73
30724;BME280;17473;52.286;20.930;2023-07-13T06:05:26;99932.44;;;25.51;73.58
30724;BME280;17473;52.286;20.930;2023-07-13T06:07:56;99942.00;;;25.86;71.04
30724;BME280;17473;52.286;20.930;2023-07-13T06:10:23;99944.03;;;25.80;71.15
30724;BME280;17473;52.286;20.930;2023-07-13T06:12:50;99937.38;;;25.90;71.05
30724;BME280;17473;52.286;20.930;2023-07-13T06:15:17;99943.16;;;26.98;67.05
30724;BME280;17473;52.286;20.930;2023-07-13T06:17:45;99942.34;;;28.98;59.15
30724;BME280;17473;52.286;20.930;2023-07-13T06:20:12;99937.88;;;28.97;58.71
30724;BME280;17473;52.286;20.930;2023-07-13T06:22:39;99936.91;;;30.54;54.52
30724;BME280;17473;52.286;20.930;2023-07-13T06:25:07;99932.22;;;31.67;50.01
30724;BME280;17473;52.286;20.930;2023-07-13T06:27:34;99928.63;;;32.10;48.72
30724;BME280;17473;52.286;20.930;2023-07-13T06:30:02;99940.09;;;33.15;46.04
30724;BME280;17473;52.286;20.930;2023-07-13T06:32:29;99938.56;;;36.68;38.60
30724;BME280;17473;52.286;20.930;2023-07-13T06:34:56;99928.91;;;39.64;33.14
30724;BME280;17473;52.286;20.930;2023-07-13T06:37:23;99920.38;;;40.25;31.42
30724;BME280;17473;52.286;20.930;2023-07-13T06:39:50;99921.78;;;41.30;29.47
30724;BME280;17473;52.286;20.930;2023-07-13T06:42:17;99918.31;;;41.47;27.58
30724;BME280;17473;52.286;20.930;2023-07-13T06:44:44;99927.50;;;40.83;27.05
30724;BME280;17473;52.286;20.930;2023-07-13T06:47:12;99920.00;;;41.66;24.83
30724;BME280;17473;52.286;20.930;2023-07-13T06:49:39;99921.38;;;41.07;25.25
30724;BME280;17473;52.286;20.930;2023-07-13T06:52:06;99919.44;;;41.44;25.70
30724;BME280;17473;52.286;20.930;2023-07-13T06:54:33;99913.13;;;40.14;25.98
30724;BME280;17473;52.286;20.930;2023-07-13T06:57:02;99910.16;;;39.68;26.46
30724;BME280;17473;52.286;20.930;2023-07-13T06:59:29;99907.19;;;40.92;25.56
30724;BME280;17473;52.286;20.930;2023-07-13T07:01:56;99898.91;;;40.74;24.54
30724;BME280;17473;52.286;20.930;2023-07-13T07:04:23;99904.75;;;41.25;24.15
30724;BME280;17473;52.286;20.930;2023-07-13T07:06:50;99905.72;;;41.16;24.24
30724;BME280;17473;52.286;20.930;2023-07-13T07:09:17;99902.28;;;42.03;23.54
30724;BME280;17473;52.286;20.930;2023-07-13T07:11:45;99901.44;;;42.45;23.41
30724;BME280;17473;52.286;20.930;2023-07-13T07:14:29;99912.09;;;40.98;24.60
30724;BME280;17473;52.286;20.930;2023-07-13T07:16:56;99900.03;;;41.54;24.07
30724;BME280;17473;52.286;20.930;2023-07-13T07:19:27;99903.91;;;42.57;23.10
30724;BME280;17473;52.286;20.930;2023-07-13T07:21:54;99898.16;;;43.01;22.05
30724;BME280;17473;52.286;20.930;2023-07-13T07:24:21;99909.97;;;43.77;20.89
30724;BME280;17473;52.286;20.930;2023-07-13T07:26:48;99894.47;;;43.00;21.26
30724;BME280;17473;52.286;20.930;2023-07-13T07:29:18;99901.19;;;42.73;21.50
30724;BME280;17473;52.286;20.930;2023-07-13T07:31:48;99904.22;;;42.19;22.24
30724;BME280;17473;52.286;20.930;2023-07-13T07:34:32;99900.91;;;43.01;21.69
30724;BME280;17473;52.286;20.930;2023-07-13T07:37:01;99903.97;;;41.96;22.39
30724;BME280;17473;52.286;20.930;2023-07-13T07:39:31;99902.34;;;43.22;21.18
30724;BME280;17473;52.286;20.930;2023-07-13T07:41:58;99907.94;;;41.30;23.13
30724;BME280;17473;52.286;20.930;2023-07-13T07:44:26;99905.59;;;40.72;23.61
30724;BME280;17473;52.286;20.930;2023-07-13T07:46:54;99913.44;;;40.94;23.10
30724;BME280;17473;52.286;20.930;2023-07-13T07:49:21;99907.38;;;41.63;21.84
30724;BME280;17473;52.286;20.930;2023-07-13T07:51:48;99910.28;;;42.14;21.53
30724;BME280;17473;52.286;20.930;2023-07-13T07:54:16;99907.47;;;41.17;22.04
30724;BME280;17473;52.286;20.930;2023-07-13T07:57:03;99905.34;;;41.47;21.76
30724;BME280;17473;52.286;20.930;2023-07-13T07:59:33;99905.69;;;40.24;22.25
30724;BME280;17473;52.286;20.930;2023-07-13T08:02:04;99898.88;;;39.32;23.33
30724;BME280;17473;52.286;20.930;2023-07-13T08:04:34;99896.44;;;39.48;23.45
30724;BME280;17473;52.286;20.930;2023-07-13T08:07:04;99909.06;;;39.70;23.61
30724;BME280;17473;52.286;20.930;2023-07-13T08:09:32;99911.09;;;40.06;23.85
30724;BME280;17473;52.286;20.930;2023-07-13T08:11:59;99912.09;;;39.48;24.37
30724;BME280;17473;52.286;20.930;2023-07-13T08:14:29;99908.63;;;39.55;24.21
30724;BME280;17473;52.286;20.930;2023-07-13T08:17:16;99908.19;;;39.11;24.99
30724;BME280;17473;52.286;20.930;2023-07-13T08:19:43;99917.72;;;36.65;27.36
30724;BME280;17473;52.286;20.930;2023-07-13T08:22:10;99907.91;;;37.70;26.23
30724;BME280;17473;52.286;20.930;2023-07-13T08:24:38;99914.28;;;38.54;25.40
30724;BME280;17473;52.286;20.930;2023-07-13T08:27:06;99903.97;;;39.36;24.25
30724;BME280;17473;52.286;20.930;2023-07-13T08:29:33;99918.94;;;38.54;24.79
30724;BME280;17473;52.286;20.930;2023-07-13T08:32:00;99914.03;;;38.67;24.32
30724;BME280;17473;52.286;20.930;2023-07-13T08:34:27;99916.38;;;38.72;24.30
30724;BME280;17473;52.286;20.930;2023-07-13T08:36:54;99921.00;;;38.30;24.65
30724;BME280;17473;52.286;20.930;2023-07-13T08:39:22;99916.16;;;38.13;24.85
30724;BME280;17473;52.286;20.930;2023-07-13T08:41:58;99911.91;;;37.56;25.50
30724;BME280;17473;52.286;20.930;2023-07-13T08:47:10;99912.50;;;37.60;25.75
30724;BME280;17473;52.286;20.930;2023-07-13T08:49:40;99922.72;;;37.37;25.49
30724;BME280;17473;52.286;20.930;2023-07-13T08:52:38;99936.56;;;36.02;27.20
30724;BME280;17473;52.286;20.930;2023-07-13T08:55:17;99928.97;;;36.40;26.75
30724;BME280;17473;52.286;20.930;2023-07-13T08:57:54;99932.19;;;36.22;27.53
30724;BME280;17473;52.286;20.930;2023-07-13T09:00:25;99935.81;;;36.34;27.75
30724;BME280;17473;52.286;20.930;2023-07-13T09:03:00;99934.69;;;36.14;27.54
30724;BME280;17473;52.286;20.930;2023-07-13T09:05:35;99940.19;;;36.14;28.08
30724;BME280;17473;52.286;20.930;2023-07-13T09:14:18;99943.75;;;35.45;28.68
30724;BME280;17473;52.286;20.930;2023-07-13T09:16:50;99937.50;;;35.42;29.59
30724;BME280;17473;52.286;20.930;2023-07-13T09:19:28;99942.75;;;33.69;32.05
30724;BME280;17473;52.286;20.930;2023-07-13T09:21:57;99950.75;;;32.63;34.43
30724;BME280;17473;52.286;20.930;2023-07-13T09:27:38;99926.91;;;31.19;36.91
30724;BME280;17473;52.286;20.930;2023-07-13T09:32:50;99944.47;;;30.16;38.70
30724;BME280;17473;52.286;20.930;2023-07-13T09:35:25;99942.72;;;30.14;38.20
30724;BME280;17473;52.286;20.930;2023-07-13T09:38:14;99942.25;;;29.89;38.47
30724;BME280;17473;52.286;20.930;2023-07-13T09:41:15;99933.81;;;29.42;39.45
30724;BME280;17473;52.286;20.930;2023-07-13T09:44:11;99931.25;;;29.02;40.35
30724;BME280;17473;52.286;20.930;2023-07-13T09:46:59;99918.13;;;30.00;39.18
30724;BME280;17473;52.286;20.930;2023-07-13T09:49:31;99916.69;;;30.42;38.54
30724;BME280;17473;52.286;20.930;2023-07-13T09:52:13;99912.34;;;29.89;39.31
30724;BME280;17473;52.286;20.930;2023-07-13T09:54:46;99920.72;;;30.35;39.06
30724;BME280;17473;52.286;20.930;2023-07-13T09:57:19;99917.44;;;30.78;38.26
30724;BME280;17473;52.286;20.930;2023-07-13T10:00:00;99920.63;;;31.01;37.44
30724;BME280;17473;52.286;20.930;2023-07-13T10:02:34;99925.97;;;30.22;37.76
30724;BME280;17473;52.286;20.930;2023-07-13T10:05:03;99914.06;;;29.56;38.72
30724;BME280;17473;52.286;20.930;2023-07-13T10:07:38;99911.53;;;29.16;39.44
30724;BME280;17473;52.286;20.930;2023-07-13T10:10:15;99906.16;;;28.80;40.73
30724;BME280;17473;52.286;20.930;2023-07-13T10:12:44;99896.31;;;28.39;42.04
30724;BME280;17473;52.286;20.930;2023-07-13T10:15:21;99912.22;;;28.27;42.78
30724;BME280;17473;52.286;20.930;2023-07-13T10:17:53;99916.50;;;28.33;43.15
30724;BME280;17473;52.286;20.930;2023-07-13T10:20:22;99913.03;;;28.30;42.83
30724;BME280;17473;52.286;20.930;2023-07-13T10:23:02;99914.44;;;28.19;43.57
30724;BME280;17473;52.286;20.930;2023-07-13T10:25:34;99917.59;;;27.69;44.65
30724;BME280;17473;52.286;20.930;2023-07-13T10:28:37;99916.53;;;27.52;44.88
30724;BME280;17473;52.286;20.930;2023-07-13T10:31:12;99914.28;;;27.19;45.77
30724;BME280;17473;52.286;20.930;2023-07-13T10:33:41;99930.50;;;27.21;46.80
30724;BME280;17473;52.286;20.930;2023-07-13T10:36:28;99939.66;;;27.39;47.89
30724;BME280;17473;52.286;20.930;2023-07-13T10:39:00;99949.03;;;27.09;50.33
30724;BME280;17473;52.286;20.930;2023-07-13T10:41:34;99959.22;;;26.80;52.64
30724;BME280;17473;52.286;20.930;2023-07-13T10:44:03;99967.97;;;26.87;55.24
30724;BME280;17473;52.286;20.930;2023-07-13T10:46:31;99976.81;;;26.68;56.98
30724;BME280;17473;52.286;20.930;2023-07-13T10:49:02;99986.22;;;26.58;59.25
30724;BME280;17473;52.286;20.930;2023-07-13T10:51:32;100000.88;;;26.52;60.40
30724;BME280;17473;52.286;20.930;2023-07-13T10:54:21;100000.88;;;26.52;61.27
30724;BME280;17473;52.286;20.930;2023-07-13T10:59:39;99968.03;;;25.89;63.01
30724;BME280;17473;52.286;20.930;2023-07-13T11:02:25;99976.94;;;25.91;63.69
30724;BME280;17473;52.286;20.930;2023-07-13T11:04:56;99964.94;;;25.74;64.94
30724;BME280;17473;52.286;20.930;2023-07-13T11:07:31;99974.44;;;25.61;64.07
30724;BME280;17473;52.286;20.930;2023-07-13T11:10:04;99985.47;;;25.55;64.65
30724;BME280;17473;52.286;20.930;2023-07-13T11:15:27;99995.41;;;25.26;66.52
30724;BME280;17473;52.286;20.930;2023-07-13T11:17:55;100004.09;;;25.07;68.43
30724;BME280;17473;52.286;20.930;2023-07-13T11:20:39;99994.00;;;25.14;68.13
30724;BME280;17473;52.286;20.930;2023-07-13T11:23:18;99991.31;;;25.12;68.39
30724;BME280;17473;52.286;20.930;2023-07-13T11:25:46;100000.72;;;24.72;70.37
30724;BME280;17473;52.286;20.930;2023-07-13T11:28:22;100018.69;;;24.72;70.83
30724;BME280;17473;52.286;20.930;2023-07-13T11:36:20;100019.28;;;24.51;71.13
30724;BME280;17473;52.286;20.930;2023-07-13T11:39:14;100032.56;;;24.26;72.49
30724;BME280;17473;52.286;20.930;2023-07-13T11:42:05;100026.50;;;24.19;73.51
30724;BME280;17473;52.286;20.930;2023-07-13T11:44:42;100027.06;;;24.31;73.51
30724;BME280;17473;52.286;20.930;2023-07-13T11:47:30;100036.19;;;24.25;71.36
30724;BME280;17473;52.286;20.930;2023-07-13T11:49:58;100024.63;;;24.21;72.22
30724;BME280;17473;52.286;20.930;2023-07-13T11:52:35;100025.47;;;24.23;72.65
30724;BME280;17473;52.286;20.930;2023-07-13T11:55:14;100029.34;;;24.13;73.13
30724;BME280;17473;52.286;20.930;2023-07-13T11:57:59;100030.91;;;24.22;72.24
30724;BME280;17473;52.286;20.930;2023-07-13T12:00:30;100033.16;;;24.06;71.64
30724;BME280;17473;52.286;20.930;2023-07-13T12:03:02;100033.44;;;24.28;70.30
30724;BME280;17473;52.286;20.930;2023-07-13T12:05:31;100030.13;;;24.18;71.22
30724;BME280;17473;52.286;20.930;2023-07-13T12:07:59;100019.81;;;24.33;72.12
30724;BME280;17473;52.286;20.930;2023-07-13T12:10:36;100014.41;;;24.33;73.00
30724;BME280;17473;52.286;20.930;2023-07-13T12:13:05;100009.94;;;24.32;73.33
30724;BME280;17473;52.286;20.930;2023-07-13T12:15:40;100002.88;;;24.28;70.06
30724;BME280;17473;52.286;20.930;2023-07-13T12:18:22;99999.53;;;24.19;68.67
30724;BME280;17473;52.286;20.930;2023-07-13T12:20:51;99998.75;;;24.16;69.13
30724;BME280;17473;52.286;20.930;2023-07-13T12:25:55;99996.19;;;23.76;69.31
30724;BME280;17473;52.286;20.930;2023-07-13T12:28:52;100004.13;;;23.48;70.68
30724;BME280;17473;52.286;20.930;2023-07-13T12:34:13;100009.16;;;23.26;73.15
30724;BME280;17473;52.286;20.930;2023-07-13T12:36:50;100006.75;;;23.12;73.67
30724;BME280;17473;52.286;20.930;2023-07-13T12:39:32;100011.91;;;23.23;73.40
30724;BME280;17473;52.286;20.930;2023-07-13T12:42:31;99993.41;;;23.07;73.54
30724;BME280;17473;52.286;20.930;2023-07-13T12:45:09;99998.84;;;23.04;74.86
30724;BME280;17473;52.286;20.930;2023-07-13T12:47:42;99996.00;;;23.12;75.18
30724;BME280;17473;52.286;20.930;2023-07-13T12:50:20;99999.84;;;23.00;75.90
30724;BME280;17473;52.286;20.930;2023-07-13T12:53:04;99988.47;;;22.89;77.02
30724;BME280;17473;52.286;20.930;2023-07-13T12:55:53;99993.53;;;23.01;77.03
30724;BME280;17473;52.286;20.930;2023-07-13T12:58:39;100001.44;;;23.09;77.08
30724;BME280;17473;52.286;20.930;2023-07-13T13:01:15;99987.75;;;23.20;75.45
30724;BME280;17473;52.286;20.930;2023-07-13T13:03:51;99994.44;;;23.39;74.11
30724;BME280;17473;52.286;20.930;2023-07-13T13:06:26;100006.22;;;23.35;73.98
30724;BME280;17473;52.286;20.930;2023-07-13T13:08:57;100001.25;;;23.18;75.11
30724;BME280;17473;52.286;20.930;2023-07-13T13:11:27;100001.03;;;23.27;76.64
30724;BME280;17473;52.286;20.930;2023-07-13T13:13:54;99997.53;;;23.22;76.28
30724;BME280;17473;52.286;20.930;2023-07-13T13:18:55;100001.59;;;23.40;75.05
30724;BME280;17473;52.286;20.930;2023-07-13T13:21:24;100004.06;;;23.50;75.90
30724;BME280;17473;52.286;20.930;2023-07-13T13:23:52;100012.09;;;23.51;74.58
30724;BME280;17473;52.286;20.930;2023-07-13T13:26:22;100020.03;;;23.57;76.03
30724;BME280;17473;52.286;20.930;2023-07-13T13:28:49;100013.88;;;23.52;76.37
30724;BME280;17473;52.286;20.930;2023-07-13T13:31:17;100031.53;;;23.64;76.71
30724;BME280;17473;52.286;20.930;2023-07-13T13:33:45;100019.94;;;23.60;78.08
30724;BME280;17473;52.286;20.930;2023-07-13T13:36:21;100018.03;;;23.64;79.46
30724;BME280;17473;52.286;20.930;2023-07-13T13:38:51;100022.41;;;23.70;79.79
30724;BME280;17473;52.286;20.930;2023-07-13T13:41:18;100016.25;;;23.65;79.44
30724;BME280;17473;52.286;20.930;2023-07-13T13:43:46;100018.53;;;23.45;80.34
30724;BME280;17473;52.286;20.930;2023-07-13T13:46:21;100025.00;;;23.38;81.20